sensor_id;sensor_type;location;lat;lon;timestamp;P1;P2;P0
56360;PMS7003;42611;51.132;13.588;2023-07-09T12:35:03;10.2;10.2;
56360;PMS7003;42611;51.132;13.588;2023-07-09T12:40:01;10.0;8.9;
56360;PMS7003;42611;51.132;13.588;2023-07-09T12:45:03;9.7;9.0;
56360;PMS7003;42611;51.132;13.588;2023-07-09T12:51:08;10.2;9.4;
56360;PMS7003;42611;51.132;13.588;2023-07-09T13:01:07;10.6;9.8;
56360;PMS7003;42611;51.132;13.588;2023-07-09T13:06:05;10.8;10.5;
56360;PMS7003;42611;51.132;13.588;2023-07-09T13:11:03;11.0;10.7;
56360;PMS7003;42611;51.132;13.588;2023-07-09T13:16:01;10.4;10.2;
56360;PMS7003;42611;51.132;13.588;2023-07-09T13:26:02;9.8;9.5;
56360;PMS7003;42611;51.132;13.588;2023-07-09T13:31:19;9.9;9.5;
56360;PMS7003;42611;51.132;13.588;2023-07-09T13:36:02;10.1;9.6;
56360;PMS7003;42611;51.132;13.588;2023-07-09T13:41:18;10.5;9.9;
56360;PMS7003;42611;51.132;13.588;2023-07-09T13:46:02;10.4;10.0;
56360;PMS7003;42611;51.132;13.588;2023-07-09T13:51:05;11.0;10.5;
56360;PMS7003;42611;51.132;13.588;2023-07-09T13:56:01;11.5;10.7;
56360;PMS7003;42611;51.132;13.588;2023-07-09T14:01:10;11.2;10.4;
56360;PMS7003;42611;51.132;13.588;2023-07-09T14:06:01;11.0;10.2;
56360;PMS7003;42611;51.132;13.588;2023-07-09T14:11:09;10.5;10.0;
56360;PMS7003;42611;51.132;13.588;2023-07-09T14:16:01;10.0;9.5;
56360;PMS7003;42611;51.132;13.588;2023-07-09T14:21:18;9.1;8.6;
56360;PMS7003;42611;51.132;13.588;2023-07-09T14:26:01;8.3;8.0;
56360;PMS7003;42611;51.132;13.588;2023-07-09T14:31:02;8.5;8.2;
56360;PMS7003;42611;51.132;13.588;2023-07-09T14:36:01;9.4;8.9;
56360;PMS7003;42611;51.132;13.588;2023-07-09T14:46:02;9.6;9.4;
56360;PMS7003;42611;51.132;13.588;2023-07-09T14:51:07;10.5;10.3;
56360;PMS7003;42611;51.132;13.588;2023-07-09T14:56:01;10.4;10.2;
56360;PMS7003;42611;51.132;13.588;2023-07-09T15:01:02;9.7;9.7;
56360;PMS7003;42611;51.132;13.588;2023-07-09T15:06:01;9.9;9.9;
56360;PMS7003;42611;51.132;13.588;2023-07-09T15:16:03;10.2;10.0;
56360;PMS7003;42611;51.132;13.588;2023-07-09T15:21:02;10.1;9.9;
56360;PMS7003;42611;51.132;13.588;2023-07-09T15:26:01;10.7;10.5;
56360;PMS7003;42611;51.132;13.588;2023-07-09T15:31:01;11.7;11.3;
56360;PMS7003;42611;51.132;13.588;2023-07-09T15:36:01;16.1;15.6;
56360;PMS7003;42611;51.132;13.588;2023-07-09T15:41:02;15.8;15.3;
56360;PMS7003;42611;51.132;13.588;2023-07-09T15:46:01;17.2;16.4;
56360;PMS7003;42611;51.132;13.588;2023-07-09T15:51:03;17.0;16.2;
56360;PMS7003;42611;51.132;13.588;2023-07-09T15:56:03;16.3;15.4;
56360;PMS7003;42611;51.132;13.588;2023-07-09T16:01:01;12.0;11.4;
56360;PMS7003;42611;51.132;13.588;2023-07-09T16:06:01;12.4;11.7;
56360;PMS7003;42611;51.132;13.588;2023-07-09T16:11:03;11.0;10.5;
56360;PMS7003;42611;51.132;13.588;2023-07-09T16:16:03;11.7;11.2;
56360;PMS7003;42611;51.132;13.588;2023-07-09T16:26:01;11.9;11.8;
56360;PMS7003;42611;51.132;13.588;2023-07-09T16:31:01;11.5;11.4;
56360;PMS7003;42611;51.132;13.588;2023-07-09T16:36:01;12.1;12.0;
56360;PMS7003;42611;51.132;13.588;2023-07-09T16:41:01;11.4;11.3;
56360;PMS7003;42611;51.132;13.588;2023-07-09T16:51:01;11.5;11.0;
56360;PMS7003;42611;51.132;13.588;2023-07-09T16:56:03;11.6;11.1;
56360;PMS7003;42611;51.132;13.588;2023-07-09T17:01:03;11.8;11.4;
56360;PMS7003;42611;51.132;13.588;2023-07-09T17:06:01;11.7;11.3;
56360;PMS7003;42611;51.132;13.588;2023-07-09T17:11:01;11.6;11.5;
56360;PMS7003;42611;51.132;13.588;2023-07-09T17:16:02;12.8;12.2;
56360;PMS7003;42611;51.132;13.588;2023-07-09T17:21:01;13.2;12.6;
56360;PMS7003;42611;51.132;13.588;2023-07-09T17:26:01;12.9;12.3;
56360;PMS7003;42611;51.132;13.588;2023-07-09T17:31:01;13.6;12.8;
56360;PMS7003;42611;51.132;13.588;2023-07-09T17:36:01;14.1;12.8;
56360;PMS7003;42611;51.132;13.588;2023-07-09T17:41:01;13.1;12.2;
56360;PMS7003;42611;51.132;13.588;2023-07-09T17:51:02;13.0;12.2;
56360;PMS7003;42611;51.132;13.588;2023-07-09T17:56:03;13.3;12.4;
56360;PMS7003;42611;51.132;13.588;2023-07-09T18:01:04;13.2;12.8;
56360;PMS7003;42611;51.132;13.588;2023-07-09T18:06:05;13.7;13.4;
56360;PMS7003;42611;51.132;13.588;2023-07-09T18:11:02;13.4;13.0;
56360;PMS7003;42611;51.132;13.588;2023-07-09T18:16:02;13.8;13.3;
56360;PMS7003;42611;51.132;13.588;2023-07-09T18:21:01;13.5;13.1;
56360;PMS7003;42611;51.132;13.588;2023-07-09T18:26:03;14.2;13.8;
56360;PMS7003;42611;51.132;13.588;2023-07-09T18:31:04;14.1;13.3;
56360;PMS7003;42611;51.132;13.588;2023-07-09T18:36:01;14.9;14.2;
56360;PMS7003;42611;51.132;13.588;2023-07-09T18:46:02;15.3;15.0;
56360;PMS7003;42611;51.132;13.588;2023-07-09T18:51:02;15.7;15.2;
56360;PMS7003;42611;51.132;13.588;2023-07-09T18:56:04;16.6;16.2;
56360;PMS7003;42611;51.132;13.588;2023-07-09T19:01:01;16.4;16.0;
56360;PMS7003;42611;51.132;13.588;2023-07-09T19:06:03;16.7;16.3;
56360;PMS7003;42611;51.132;13.588;2023-07-09T19:11:02;17.2;16.8;
56360;PMS7003;42611;51.132;13.588;2023-07-09T19:17:06;16.7;16.3;
56360;PMS7003;42611;51.132;13.588;2023-07-09T19:22:01;16.5;16.0;
56360;PMS7003;42611;51.132;13.588;2023-07-09T19:27:01;17.0;16.6;
56360;PMS7003;42611;51.132;13.588;2023-07-09T19:32:02;17.3;16.8;
56360;PMS7003;42611;51.132;13.588;2023-07-09T19:37:03;17.5;16.8;
56360;PMS7003;42611;51.132;13.588;2023-07-09T19:42:12;18.0;17.1;
56360;PMS7003;42611;51.132;13.588;2023-07-09T19:47:02;17.7;17.1;
56360;PMS7003;42611;51.132;13.588;2023-07-09T19:52:01;18.2;17.3;
56360;PMS7003;42611;51.132;13.588;2023-07-09T19:57:02;18.6;17.8;
56360;PMS7003;42611;51.132;13.588;2023-07-09T20:02:01;19.2;18.3;
56360;PMS7003;42611;51.132;13.588;2023-07-09T20:07:02;18.4;18.0;
56360;PMS7003;42611;51.132;13.588;2023-07-09T20:12:01;19.2;18.5;
56360;PMS7003;42611;51.132;13.588;2023-07-09T20:17:02;18.9;18.2;
56360;PMS7003;42611;51.132;13.588;2023-07-09T20:22:01;20.0;18.4;
56360;PMS7003;42611;51.132;13.588;2023-07-09T20:27:01;19.4;18.0;
56360;PMS7003;42611;51.132;13.588;2023-07-09T20:32:01;20.4;18.8;
56360;PMS7003;42611;51.132;13.588;2023-07-09T20:37:03;20.1;18.8;
56360;PMS7003;42611;51.132;13.588;2023-07-09T20:42:01;21.6;20.2;
56360;PMS7003;42611;51.132;13.588;2023-07-09T20:47:01;21.8;21.2;
56360;PMS7003;42611;51.132;13.588;2023-07-09T20:52:03;22.0;21.5;
56360;PMS7003;42611;51.132;13.588;2023-07-09T20:57:01;21.8;21.5;
56360;PMS7003;42611;51.132;13.588;2023-07-09T21:02:01;22.3;22.0;
56360;PMS7003;42611;51.132;13.588;2023-07-09T21:07:01;21.3;21.3;
56360;PMS7003;42611;51.132;13.588;2023-07-09T21:12:09;21.0;20.8;
56360;PMS7003;42611;51.132;13.588;2023-07-09T21:17:01;21.4;21.2;
56360;PMS7003;42611;51.132;13.588;2023-07-09T21:22:02;21.0;20.7;
56360;PMS7003;42611;51.132;13.588;2023-07-09T21:27:01;21.8;21.6;
56360;PMS7003;42611;51.132;13.588;2023-07-09T21:32:02;22.2;22.0;
56360;PMS7003;42611;51.132;13.588;2023-07-09T21:37:15;21.8;21.6;
56360;PMS7003;42611;51.132;13.588;2023-07-09T21:42:02;22.0;21.8;
56360;PMS7003;42611;51.132;13.588;2023-07-09T21:47:06;24.1;23.2;
56360;PMS7003;42611;51.132;13.588;2023-07-09T21:52:01;23.8;22.8;
56360;PMS7003;42611;51.132;13.588;2023-07-09T21:57:01;23.5;22.5;
56360;PMS7003;42611;51.132;13.588;2023-07-09T22:02:01;25.0;23.9;
56360;PMS7003;42611;51.132;13.588;2023-07-09T22:07:10;25.6;24.6;
56360;PMS7003;42611;51.132;13.588;2023-07-09T22:12:01;25.1;24.6;
56360;PMS7003;42611;51.132;13.588;2023-07-09T22:17:01;25.4;25.0;
56360;PMS7003;42611;51.132;13.588;2023-07-09T22:22:04;26.9;25.8;
56360;PMS7003;42611;51.132;13.588;2023-07-09T22:27:01;27.0;25.8;
56360;PMS7003;42611;51.132;13.588;2023-07-09T22:32:01;27.3;26.2;
56360;PMS7003;42611;51.132;13.588;2023-07-09T22:37:02;27.2;26.2;
56360;PMS7003;42611;51.132;13.588;2023-07-09T22:42:01;27.1;25.6;
56360;PMS7003;42611;51.132;13.588;2023-07-09T22:47:01;26.6;25.5;
56360;PMS7003;42611;51.132;13.588;2023-07-09T22:52:02;26.4;25.6;
56360;PMS7003;42611;51.132;13.588;2023-07-09T23:02:02;26.0;24.9;
56360;PMS7003;42611;51.132;13.588;2023-07-09T23:07:12;25.4;24.7;
56360;PMS7003;42611;51.132;13.588;2023-07-09T23:12:01;24.6;24.1;
56360;PMS7003;42611;51.132;13.588;2023-07-09T23:22:01;24.8;24.4;
56360;PMS7003;42611;51.132;13.588;2023-07-09T23:27:02;24.7;23.9;
56360;PMS7003;42611;51.132;13.588;2023-07-09T23:32:01;25.1;24.1;
56360;PMS7003;42611;51.132;13.588;2023-07-09T23:37:01;25.2;24.0;
56360;PMS7003;42611;51.132;13.588;2023-07-09T23:42:01;24.1;23.0;
56360;PMS7003;42611;51.132;13.588;2023-07-09T23:47:01;22.7;22.0;
56360;PMS7003;42611;51.132;13.588;2023-07-09T23:52:01;22.3;21.6;
56360;PMS7003;42611;51.132;13.588;2023-07-09T23:57:02;22.1;21.6;
